sensor_id;sensor_type;location;lat;lon;timestamp;P1;durP1;ratioP1;P2;durP2;ratioP2
4466;SDS011;2246;42.664;23.278;2023-08-06T00:02:15;4.75;;;3.63;;
4466;SDS011;2246;42.664;23.278;2023-08-06T00:04:41;7.38;;;3.25;;
4466;SDS011;2246;42.664;23.278;2023-08-06T00:07:07;6.90;;;3.88;;
4466;SDS011;2246;42.664;23.278;2023-08-06T00:09:33;6.53;;;3.58;;
4466;SDS011;2246;42.664;23.278;2023-08-06T00:11:59;9.20;;;3.75;;
4466;SDS011;2246;42.664;23.278;2023-08-06T00:14:25;7.45;;;3.83;;
4466;SDS011;2246;42.664;23.278;2023-08-06T00:16:51;7.00;;;3.60;;
4466;SDS011;2246;42.664;23.278;2023-08-06T00:19:17;8.65;;;3.45;;
4466;SDS011;2246;42.664;23.278;2023-08-06T00:21:43;9.27;;;3.65;;
4466;SDS011;2246;42.664;23.278;2023-08-06T00:24:09;8.02;;;3.53;;
4466;SDS011;2246;42.664;23.278;2023-08-06T00:26:35;6.90;;;3.78;;
4466;SDS011;2246;42.664;23.278;2023-08-06T00:29:01;6.43;;;3.60;;
4466;SDS011;2246;42.664;23.278;2023-08-06T00:31:27;4.90;;;3.67;;
4466;SDS011;2246;42.664;23.278;2023-08-06T00:33:53;5.97;;;3.17;;
4466;SDS011;2246;42.664;23.278;2023-08-06T00:36:19;5.63;;;3.20;;
4466;SDS011;2246;42.664;23.278;2023-08-06T00:38:45;7.93;;;3.63;;
4466;SDS011;2246;42.664;23.278;2023-08-06T00:41:11;6.07;;;3.13;;
4466;SDS011;2246;42.664;23.278;2023-08-06T00:43:37;6.85;;;3.35;;
4466;SDS011;2246;42.664;23.278;2023-08-06T00:46:03;4.22;;;2.95;;
4466;SDS011;2246;42.664;23.278;2023-08-06T00:48:29;7.13;;;3.28;;
4466;SDS011;2246;42.664;23.278;2023-08-06T00:50:55;7.55;;;3.42;;
4466;SDS011;2246;42.664;23.278;2023-08-06T00:53:21;9.45;;;3.50;;
4466;SDS011;2246;42.664;23.278;2023-08-06T00:55:47;4.68;;;2.92;;
4466;SDS011;2246;42.664;23.278;2023-08-06T00:58:14;5.32;;;2.88;;
4466;SDS011;2246;42.664;23.278;2023-08-06T01:00:41;3.95;;;2.53;;
4466;SDS011;2246;42.664;23.278;2023-08-06T01:03:07;3.45;;;2.70;;
4466;SDS011;2246;42.664;23.278;2023-08-06T01:05:33;3.20;;;2.47;;
4466;SDS011;2246;42.664;23.278;2023-08-06T01:08:08;5.13;;;2.67;;
4466;SDS011;2246;42.664;23.278;2023-08-06T01:15:55;7.30;;;3.83;;
4466;SDS011;2246;42.664;23.278;2023-08-06T01:18:23;8.13;;;4.07;;
4466;SDS011;2246;42.664;23.278;2023-08-06T01:20:49;11.05;;;4.13;;
4466;SDS011;2246;42.664;23.278;2023-08-06T01:23:15;7.40;;;4.10;;
4466;SDS011;2246;42.664;23.278;2023-08-06T01:28:26;7.65;;;4.03;;
4466;SDS011;2246;42.664;23.278;2023-08-06T01:30:54;8.35;;;4.55;;
4466;SDS011;2246;42.664;23.278;2023-08-06T01:33:21;5.28;;;3.50;;
4466;SDS011;2246;42.664;23.278;2023-08-06T01:35:48;6.32;;;3.95;;
4466;SDS011;2246;42.664;23.278;2023-08-06T01:38:15;5.88;;;4.10;;
4466;SDS011;2246;42.664;23.278;2023-08-06T01:40:41;6.05;;;3.95;;
4466;SDS011;2246;42.664;23.278;2023-08-06T01:43:07;8.23;;;4.03;;
4466;SDS011;2246;42.664;23.278;2023-08-06T01:45:33;8.00;;;3.50;;
4466;SDS011;2246;42.664;23.278;2023-08-06T01:47:59;3.72;;;3.17;;
4466;SDS011;2246;42.664;23.278;2023-08-06T01:50:25;5.97;;;3.83;;
4466;SDS011;2246;42.664;23.278;2023-08-06T01:52:51;5.85;;;3.42;;
4466;SDS011;2246;42.664;23.278;2023-08-06T01:55:17;5.15;;;3.70;;
4466;SDS011;2246;42.664;23.278;2023-08-06T01:57:43;7.47;;;3.70;;
4466;SDS011;2246;42.664;23.278;2023-08-06T02:00:10;5.43;;;3.13;;
4466;SDS011;2246;42.664;23.278;2023-08-06T02:02:36;5.00;;;3.65;;
4466;SDS011;2246;42.664;23.278;2023-08-06T02:05:02;4.40;;;3.45;;
4466;SDS011;2246;42.664;23.278;2023-08-06T02:07:29;6.38;;;3.72;;
4466;SDS011;2246;42.664;23.278;2023-08-06T02:09:55;7.72;;;3.55;;
4466;SDS011;2246;42.664;23.278;2023-08-06T02:12:20;6.45;;;3.70;;
4466;SDS011;2246;42.664;23.278;2023-08-06T02:14:46;5.20;;;3.60;;
4466;SDS011;2246;42.664;23.278;2023-08-06T02:17:12;4.00;;;3.47;;
4466;SDS011;2246;42.664;23.278;2023-08-06T02:19:38;3.80;;;3.40;;
4466;SDS011;2246;42.664;23.278;2023-08-06T02:22:05;11.55;;;3.92;;
4466;SDS011;2246;42.664;23.278;2023-08-06T02:24:31;13.82;;;5.22;;
4466;SDS011;2246;42.664;23.278;2023-08-06T02:26:57;10.20;;;4.18;;
4466;SDS011;2246;42.664;23.278;2023-08-06T02:29:23;8.95;;;3.80;;
4466;SDS011;2246;42.664;23.278;2023-08-06T02:31:49;10.60;;;3.72;;
4466;SDS011;2246;42.664;23.278;2023-08-06T02:34:15;10.65;;;4.22;;
4466;SDS011;2246;42.664;23.278;2023-08-06T02:36:41;8.18;;;3.47;;
4466;SDS011;2246;42.664;23.278;2023-08-06T02:39:07;10.10;;;3.85;;
4466;SDS011;2246;42.664;23.278;2023-08-06T02:41:33;9.88;;;3.50;;
4466;SDS011;2246;42.664;23.278;2023-08-06T02:43:59;5.53;;;3.35;;
4466;SDS011;2246;42.664;23.278;2023-08-06T02:46:25;5.32;;;3.60;;
4466;SDS011;2246;42.664;23.278;2023-08-06T02:48:51;4.10;;;3.30;;
4466;SDS011;2246;42.664;23.278;2023-08-06T02:51:17;4.63;;;2.80;;
4466;SDS011;2246;42.664;23.278;2023-08-06T02:53:43;5.03;;;2.95;;
4466;SDS011;2246;42.664;23.278;2023-08-06T02:56:09;6.57;;;3.03;;
4466;SDS011;2246;42.664;23.278;2023-08-06T02:58:35;4.60;;;2.85;;
4466;SDS011;2246;42.664;23.278;2023-08-06T03:03:28;4.50;;;3.10;;
4466;SDS011;2246;42.664;23.278;2023-08-06T03:05:54;5.80;;;3.80;;
4466;SDS011;2246;42.664;23.278;2023-08-06T03:08:20;4.93;;;3.22;;
4466;SDS011;2246;42.664;23.278;2023-08-06T03:10:49;5.68;;;3.20;;
4466;SDS011;2246;42.664;23.278;2023-08-06T03:13:18;9.35;;;3.50;;
4466;SDS011;2246;42.664;23.278;2023-08-06T03:18:20;5.53;;;3.20;;
4466;SDS011;2246;42.664;23.278;2023-08-06T03:20:46;6.40;;;3.15;;
4466;SDS011;2246;42.664;23.278;2023-08-06T03:23:12;10.55;;;3.38;;
4466;SDS011;2246;42.664;23.278;2023-08-06T03:25:38;8.43;;;3.13;;
4466;SDS011;2246;42.664;23.278;2023-08-06T03:28:04;5.13;;;3.33;;
4466;SDS011;2246;42.664;23.278;2023-08-06T03:30:30;4.30;;;2.97;;
4466;SDS011;2246;42.664;23.278;2023-08-06T03:32:56;5.07;;;3.15;;
4466;SDS011;2246;42.664;23.278;2023-08-06T03:35:22;5.75;;;3.30;;
4466;SDS011;2246;42.664;23.278;2023-08-06T03:37:48;5.03;;;3.40;;
4466;SDS011;2246;42.664;23.278;2023-08-06T03:40:15;7.00;;;2.95;;
4466;SDS011;2246;42.664;23.278;2023-08-06T03:42:41;3.65;;;2.42;;
4466;SDS011;2246;42.664;23.278;2023-08-06T03:45:07;4.35;;;2.95;;
4466;SDS011;2246;42.664;23.278;2023-08-06T03:47:33;4.85;;;3.15;;
4466;SDS011;2246;42.664;23.278;2023-08-06T03:50:00;7.13;;;3.30;;
4466;SDS011;2246;42.664;23.278;2023-08-06T03:52:26;6.00;;;3.63;;
4466;SDS011;2246;42.664;23.278;2023-08-06T03:54:52;9.32;;;3.53;;
4466;SDS011;2246;42.664;23.278;2023-08-06T03:57:18;7.75;;;4.10;;
4466;SDS011;2246;42.664;23.278;2023-08-06T03:59:44;6.00;;;4.10;;
4466;SDS011;2246;42.664;23.278;2023-08-06T04:02:10;9.98;;;3.65;;
4466;SDS011;2246;42.664;23.278;2023-08-06T04:04:36;5.30;;;3.40;;
4466;SDS011;2246;42.664;23.278;2023-08-06T04:07:02;6.95;;;3.58;;
4466;SDS011;2246;42.664;23.278;2023-08-06T04:09:28;6.68;;;3.45;;
4466;SDS011;2246;42.664;23.278;2023-08-06T04:11:55;5.97;;;3.25;;
4466;SDS011;2246;42.664;23.278;2023-08-06T04:14:21;5.72;;;3.20;;
4466;SDS011;2246;42.664;23.278;2023-08-06T04:16:47;4.00;;;3.38;;
4466;SDS011;2246;42.664;23.278;2023-08-06T04:19:13;5.88;;;3.60;;
4466;SDS011;2246;42.664;23.278;2023-08-06T04:21:39;7.22;;;3.90;;
4466;SDS011;2246;42.664;23.278;2023-08-06T04:24:05;4.47;;;3.53;;
4466;SDS011;2246;42.664;23.278;2023-08-06T04:26:31;5.10;;;3.90;;
4466;SDS011;2246;42.664;23.278;2023-08-06T04:28:57;7.53;;;4.60;;
4466;SDS011;2246;42.664;23.278;2023-08-06T04:31:23;6.30;;;4.43;;
4466;SDS011;2246;42.664;23.278;2023-08-06T04:33:49;6.32;;;4.22;;
4466;SDS011;2246;42.664;23.278;2023-08-06T04:36:15;5.80;;;4.00;;
4466;SDS011;2246;42.664;23.278;2023-08-06T04:38:41;7.68;;;4.55;;
4466;SDS011;2246;42.664;23.278;2023-08-06T04:41:10;7.15;;;3.65;;
4466;SDS011;2246;42.664;23.278;2023-08-06T04:43:36;7.60;;;4.10;;
4466;SDS011;2246;42.664;23.278;2023-08-06T04:46:02;7.80;;;4.03;;
4466;SDS011;2246;42.664;23.278;2023-08-06T04:48:28;7.25;;;3.92;;
4466;SDS011;2246;42.664;23.278;2023-08-06T04:50:54;6.75;;;3.80;;
4466;SDS011;2246;42.664;23.278;2023-08-06T04:53:20;7.75;;;4.47;;
4466;SDS011;2246;42.664;23.278;2023-08-06T04:55:47;6.97;;;5.13;;
4466;SDS011;2246;42.664;23.278;2023-08-06T04:58:13;7.07;;;4.90;;
4466;SDS011;2246;42.664;23.278;2023-08-06T05:00:39;8.55;;;3.83;;
4466;SDS011;2246;42.664;23.278;2023-08-06T05:03:05;4.53;;;3.55;;
4466;SDS011;2246;42.664;23.278;2023-08-06T05:05:31;4.35;;;3.70;;
4466;SDS011;2246;42.664;23.278;2023-08-06T05:07:57;4.78;;;3.00;;
4466;SDS011;2246;42.664;23.278;2023-08-06T05:10:26;5.15;;;3.50;;
4466;SDS011;2246;42.664;23.278;2023-08-06T05:12:52;5.97;;;3.97;;
4466;SDS011;2246;42.664;23.278;2023-08-06T05:15:19;9.57;;;5.13;;
4466;SDS011;2246;42.664;23.278;2023-08-06T05:17:45;9.30;;;6.57;;
4466;SDS011;2246;42.664;23.278;2023-08-06T05:20:11;10.55;;;6.03;;
4466;SDS011;2246;42.664;23.278;2023-08-06T05:22:37;9.48;;;6.63;;
4466;SDS011;2246;42.664;23.278;2023-08-06T05:25:03;11.02;;;6.72;;
4466;SDS011;2246;42.664;23.278;2023-08-06T05:27:29;10.65;;;6.60;;
4466;SDS011;2246;42.664;23.278;2023-08-06T05:29:55;8.48;;;5.47;;
4466;SDS011;2246;42.664;23.278;2023-08-06T05:32:22;5.18;;;4.50;;
4466;SDS011;2246;42.664;23.278;2023-08-06T05:34:48;6.82;;;5.45;;
4466;SDS011;2246;42.664;23.278;2023-08-06T05:37:14;5.57;;;4.57;;
4466;SDS011;2246;42.664;23.278;2023-08-06T05:39:40;6.75;;;4.43;;
4466;SDS011;2246;42.664;23.278;2023-08-06T05:42:06;5.82;;;4.82;;
4466;SDS011;2246;42.664;23.278;2023-08-06T05:44:32;6.00;;;4.78;;
4466;SDS011;2246;42.664;23.278;2023-08-06T05:46:58;6.97;;;4.75;;
4466;SDS011;2246;42.664;23.278;2023-08-06T05:49:24;6.57;;;5.03;;
4466;SDS011;2246;42.664;23.278;2023-08-06T05:51:50;6.65;;;5.85;;
4466;SDS011;2246;42.664;23.278;2023-08-06T05:54:18;10.30;;;6.55;;
4466;SDS011;2246;42.664;23.278;2023-08-06T05:56:44;11.77;;;6.80;;
4466;SDS011;2246;42.664;23.278;2023-08-06T05:59:10;8.57;;;7.15;;
4466;SDS011;2246;42.664;23.278;2023-08-06T06:01:36;12.52;;;10.02;;
4466;SDS011;2246;42.664;23.278;2023-08-06T06:04:02;14.55;;;9.50;;
4466;SDS011;2246;42.664;23.278;2023-08-06T06:06:28;10.13;;;7.80;;
4466;SDS011;2246;42.664;23.278;2023-08-06T06:08:54;10.35;;;7.30;;
4466;SDS011;2246;42.664;23.278;2023-08-06T06:11:20;9.40;;;7.00;;
4466;SDS011;2246;42.664;23.278;2023-08-06T06:13:49;8.93;;;5.68;;
4466;SDS011;2246;42.664;23.278;2023-08-06T06:16:15;5.78;;;4.72;;
4466;SDS011;2246;42.664;23.278;2023-08-06T06:18:41;7.82;;;5.40;;
4466;SDS011;2246;42.664;23.278;2023-08-06T06:21:07;5.82;;;3.95;;
4466;SDS011;2246;42.664;23.278;2023-08-06T06:23:33;7.47;;;4.32;;
4466;SDS011;2246;42.664;23.278;2023-08-06T06:25:59;3.67;;;3.28;;
4466;SDS011;2246;42.664;23.278;2023-08-06T06:28:25;4.95;;;3.78;;
4466;SDS011;2246;42.664;23.278;2023-08-06T06:30:51;5.72;;;3.72;;
4466;SDS011;2246;42.664;23.278;2023-08-06T06:33:17;6.18;;;3.40;;
4466;SDS011;2246;42.664;23.278;2023-08-06T06:35:43;5.05;;;3.65;;
4466;SDS011;2246;42.664;23.278;2023-08-06T06:38:09;4.00;;;3.47;;
4466;SDS011;2246;42.664;23.278;2023-08-06T06:40:35;5.32;;;3.55;;
4466;SDS011;2246;42.664;23.278;2023-08-06T06:43:02;7.47;;;3.60;;
4466;SDS011;2246;42.664;23.278;2023-08-06T06:45:28;3.78;;;3.30;;
4466;SDS011;2246;42.664;23.278;2023-08-06T06:47:54;5.90;;;3.90;;
4466;SDS011;2246;42.664;23.278;2023-08-06T06:50:20;6.57;;;3.53;;
4466;SDS011;2246;42.664;23.278;2023-08-06T06:52:46;4.95;;;3.63;;
4466;SDS011;2246;42.664;23.278;2023-08-06T06:55:12;7.78;;;5.10;;
4466;SDS011;2246;42.664;23.278;2023-08-06T06:57:38;7.68;;;6.03;;
4466;SDS011;2246;42.664;23.278;2023-08-06T07:00:04;11.23;;;6.68;;
4466;SDS011;2246;42.664;23.278;2023-08-06T07:02:31;6.13;;;4.82;;
4466;SDS011;2246;42.664;23.278;2023-08-06T07:04:57;5.85;;;4.55;;
4466;SDS011;2246;42.664;23.278;2023-08-06T07:07:23;6.78;;;4.13;;
4466;SDS011;2246;42.664;23.278;2023-08-06T07:09:49;5.60;;;3.88;;
4466;SDS011;2246;42.664;23.278;2023-08-06T07:12:15;4.78;;;3.65;;
4466;SDS011;2246;42.664;23.278;2023-08-06T07:14:41;5.95;;;4.80;;
4466;SDS011;2246;42.664;23.278;2023-08-06T07:17:07;5.22;;;3.97;;
4466;SDS011;2246;42.664;23.278;2023-08-06T07:19:33;4.70;;;4.10;;
4466;SDS011;2246;42.664;23.278;2023-08-06T07:21:59;7.30;;;4.40;;
4466;SDS011;2246;42.664;23.278;2023-08-06T07:24:25;4.00;;;3.20;;
4466;SDS011;2246;42.664;23.278;2023-08-06T07:26:51;5.15;;;3.33;;
4466;SDS011;2246;42.664;23.278;2023-08-06T07:29:17;4.13;;;2.90;;
4466;SDS011;2246;42.664;23.278;2023-08-06T07:31:47;5.65;;;2.88;;
4466;SDS011;2246;42.664;23.278;2023-08-06T07:34:14;5.10;;;3.40;;
4466;SDS011;2246;42.664;23.278;2023-08-06T07:36:42;8.70;;;2.90;;
4466;SDS011;2246;42.664;23.278;2023-08-06T07:39:08;5.10;;;2.60;;
4466;SDS011;2246;42.664;23.278;2023-08-06T07:41:35;3.95;;;2.95;;
4466;SDS011;2246;42.664;23.278;2023-08-06T07:44:01;2.85;;;2.50;;
4466;SDS011;2246;42.664;23.278;2023-08-06T07:46:27;4.88;;;2.90;;
4466;SDS011;2246;42.664;23.278;2023-08-06T07:48:53;4.32;;;3.28;;
4466;SDS011;2246;42.664;23.278;2023-08-06T07:51:19;4.78;;;2.72;;
4466;SDS011;2246;42.664;23.278;2023-08-06T07:53:45;3.53;;;3.00;;
4466;SDS011;2246;42.664;23.278;2023-08-06T07:56:12;5.88;;;2.78;;
4466;SDS011;2246;42.664;23.278;2023-08-06T07:58:38;4.40;;;2.97;;
4466;SDS011;2246;42.664;23.278;2023-08-06T08:01:04;5.03;;;3.15;;
4466;SDS011;2246;42.664;23.278;2023-08-06T08:03:32;4.78;;;2.55;;
4466;SDS011;2246;42.664;23.278;2023-08-06T08:05:58;4.35;;;2.42;;
4466;SDS011;2246;42.664;23.278;2023-08-06T08:08:24;5.43;;;3.00;;
4466;SDS011;2246;42.664;23.278;2023-08-06T08:10:50;4.22;;;2.10;;
4466;SDS011;2246;42.664;23.278;2023-08-06T08:13:16;6.25;;;2.92;;
4466;SDS011;2246;42.664;23.278;2023-08-06T08:15:42;5.72;;;2.58;;
4466;SDS011;2246;42.664;23.278;2023-08-06T08:18:08;8.48;;;3.25;;
4466;SDS011;2246;42.664;23.278;2023-08-06T08:20:34;4.85;;;2.70;;
4466;SDS011;2246;42.664;23.278;2023-08-06T08:23:01;4.97;;;3.03;;
4466;SDS011;2246;42.664;23.278;2023-08-06T08:25:27;4.00;;;2.60;;
4466;SDS011;2246;42.664;23.278;2023-08-06T08:27:53;4.05;;;2.47;;
4466;SDS011;2246;42.664;23.278;2023-08-06T08:30:20;5.15;;;2.30;;
4466;SDS011;2246;42.664;23.278;2023-08-06T08:32:46;3.83;;;2.45;;
4466;SDS011;2246;42.664;23.278;2023-08-06T08:35:12;4.32;;;2.65;;
4466;SDS011;2246;42.664;23.278;2023-08-06T08:37:38;4.78;;;2.95;;
4466;SDS011;2246;42.664;23.278;2023-08-06T08:40:05;3.35;;;2.53;;
4466;SDS011;2246;42.664;23.278;2023-08-06T08:42:32;4.13;;;2.42;;
4466;SDS011;2246;42.664;23.278;2023-08-06T08:44:58;5.05;;;2.80;;
4466;SDS011;2246;42.664;23.278;2023-08-06T08:47:24;6.28;;;3.08;;
4466;SDS011;2246;42.664;23.278;2023-08-06T08:49:52;5.78;;;3.05;;
4466;SDS011;2246;42.664;23.278;2023-08-06T08:52:22;4.55;;;2.70;;
4466;SDS011;2246;42.664;23.278;2023-08-06T08:54:49;4.00;;;2.80;;
4466;SDS011;2246;42.664;23.278;2023-08-06T08:57:17;5.40;;;3.00;;
4466;SDS011;2246;42.664;23.278;2023-08-06T08:59:43;11.82;;;3.15;;
4466;SDS011;2246;42.664;23.278;2023-08-06T09:02:13;3.50;;;2.53;;
4466;SDS011;2246;42.664;23.278;2023-08-06T09:04:41;3.78;;;2.88;;
4466;SDS011;2246;42.664;23.278;2023-08-06T09:07:07;3.72;;;2.53;;
4466;SDS011;2246;42.664;23.278;2023-08-06T09:09:35;2.55;;;2.22;;
4466;SDS011;2246;42.664;23.278;2023-08-06T09:12:06;4.03;;;2.80;;
4466;SDS011;2246;42.664;23.278;2023-08-06T09:14:35;4.63;;;2.90;;
4466;SDS011;2246;42.664;23.278;2023-08-06T09:17:02;4.90;;;2.70;;
4466;SDS011;2246;42.664;23.278;2023-08-06T09:19:29;3.55;;;2.70;;
4466;SDS011;2246;42.664;23.278;2023-08-06T09:21:55;4.10;;;2.53;;
4466;SDS011;2246;42.664;23.278;2023-08-06T09:24:22;2.93;;;2.53;;
4466;SDS011;2246;42.664;23.278;2023-08-06T09:26:48;4.03;;;2.80;;
4466;SDS011;2246;42.664;23.278;2023-08-06T09:29:14;2.95;;;2.60;;
4466;SDS011;2246;42.664;23.278;2023-08-06T09:31:47;4.93;;;2.90;;
4466;SDS011;2246;42.664;23.278;2023-08-06T09:36:43;6.03;;;2.50;;
4466;SDS011;2246;42.664;23.278;2023-08-06T09:39:15;7.35;;;2.70;;
4466;SDS011;2246;42.664;23.278;2023-08-06T09:41:42;2.97;;;2.40;;
4466;SDS011;2246;42.664;23.278;2023-08-06T09:44:20;4.63;;;2.70;;
4466;SDS011;2246;42.664;23.278;2023-08-06T09:46:52;3.78;;;2.40;;
4466;SDS011;2246;42.664;23.278;2023-08-06T09:49:19;3.55;;;2.65;;
4466;SDS011;2246;42.664;23.278;2023-08-06T09:51:45;2.25;;;2.05;;
4466;SDS011;2246;42.664;23.278;2023-08-06T09:54:15;3.85;;;2.10;;
4466;SDS011;2246;42.664;23.278;2023-08-06T09:56:42;3.80;;;2.13;;
4466;SDS011;2246;42.664;23.278;2023-08-06T09:59:08;2.70;;;2.00;;
4466;SDS011;2246;42.664;23.278;2023-08-06T10:01:36;2.35;;;1.83;;
4466;SDS011;2246;42.664;23.278;2023-08-06T10:04:03;4.15;;;1.90;;
4466;SDS011;2246;42.664;23.278;2023-08-06T10:06:29;3.03;;;1.90;;
4466;SDS011;2246;42.664;23.278;2023-08-06T10:08:55;5.35;;;1.58;;
4466;SDS011;2246;42.664;23.278;2023-08-06T10:11:22;4.15;;;1.92;;
4466;SDS011;2246;42.664;23.278;2023-08-06T10:13:51;3.60;;;2.13;;
4466;SDS011;2246;42.664;23.278;2023-08-06T10:16:18;3.00;;;1.70;;
4466;SDS011;2246;42.664;23.278;2023-08-06T10:18:45;4.25;;;2.10;;
4466;SDS011;2246;42.664;23.278;2023-08-06T10:23:40;5.07;;;1.90;;
4466;SDS011;2246;42.664;23.278;2023-08-06T10:26:07;2.03;;;1.70;;
4466;SDS011;2246;42.664;23.278;2023-08-06T10:31:00;3.80;;;2.13;;
4466;SDS011;2246;42.664;23.278;2023-08-06T10:33:30;2.78;;;1.52;;
4466;SDS011;2246;42.664;23.278;2023-08-06T10:36:06;5.13;;;2.17;;
4466;SDS011;2246;42.664;23.278;2023-08-06T10:38:34;2.78;;;1.83;;
4466;SDS011;2246;42.664;23.278;2023-08-06T10:41:02;2.78;;;1.90;;
4466;SDS011;2246;42.664;23.278;2023-08-06T10:43:36;2.95;;;1.98;;
4466;SDS011;2246;42.664;23.278;2023-08-06T10:46:10;2.28;;;1.70;;
4466;SDS011;2246;42.664;23.278;2023-08-06T10:48:37;7.75;;;2.08;;
4466;SDS011;2246;42.664;23.278;2023-08-06T10:51:07;2.83;;;2.20;;
4466;SDS011;2246;42.664;23.278;2023-08-06T10:53:34;2.25;;;1.73;;
4466;SDS011;2246;42.664;23.278;2023-08-06T10:56:00;4.20;;;2.20;;
4466;SDS011;2246;42.664;23.278;2023-08-06T10:58:30;2.93;;;1.80;;
4466;SDS011;2246;42.664;23.278;2023-08-06T11:00:56;4.13;;;2.20;;
4466;SDS011;2246;42.664;23.278;2023-08-06T11:03:22;2.30;;;2.10;;
4466;SDS011;2246;42.664;23.278;2023-08-06T11:05:49;2.47;;;2.08;;
4466;SDS011;2246;42.664;23.278;2023-08-06T11:08:27;2.78;;;1.88;;
4466;SDS011;2246;42.664;23.278;2023-08-06T11:10:54;3.05;;;1.95;;
4466;SDS011;2246;42.664;23.278;2023-08-06T11:13:20;1.90;;;1.70;;
4466;SDS011;2246;42.664;23.278;2023-08-06T11:15:46;3.35;;;2.30;;
4466;SDS011;2246;42.664;23.278;2023-08-06T11:18:12;5.43;;;2.17;;
4466;SDS011;2246;42.664;23.278;2023-08-06T11:20:38;4.68;;;2.30;;
4466;SDS011;2246;42.664;23.278;2023-08-06T11:23:05;6.03;;;2.45;;
4466;SDS011;2246;42.664;23.278;2023-08-06T11:25:36;9.95;;;2.70;;
4466;SDS011;2246;42.664;23.278;2023-08-06T11:28:02;7.80;;;3.00;;
4466;SDS011;2246;42.664;23.278;2023-08-06T11:30:29;3.50;;;2.60;;
4466;SDS011;2246;42.664;23.278;2023-08-06T11:32:54;4.93;;;3.15;;
4466;SDS011;2246;42.664;23.278;2023-08-06T11:35:22;3.70;;;2.75;;
4466;SDS011;2246;42.664;23.278;2023-08-06T11:37:48;4.78;;;2.97;;
4466;SDS011;2246;42.664;23.278;2023-08-06T11:40:14;5.43;;;3.17;;
4466;SDS011;2246;42.664;23.278;2023-08-06T11:42:41;7.28;;;3.30;;
4466;SDS011;2246;42.664;23.278;2023-08-06T11:45:10;7.97;;;3.60;;
4466;SDS011;2246;42.664;23.278;2023-08-06T11:47:39;6.07;;;3.10;;
4466;SDS011;2246;42.664;23.278;2023-08-06T11:50:06;8.30;;;4.00;;
4466;SDS011;2246;42.664;23.278;2023-08-06T11:52:32;7.05;;;3.50;;
4466;SDS011;2246;42.664;23.278;2023-08-06T11:57:35;7.18;;;3.33;;
4466;SDS011;2246;42.664;23.278;2023-08-06T12:00:04;6.85;;;3.05;;
4466;SDS011;2246;42.664;23.278;2023-08-06T12:02:32;5.90;;;3.85;;
4466;SDS011;2246;42.664;23.278;2023-08-06T12:07:29;5.03;;;3.22;;
4466;SDS011;2246;42.664;23.278;2023-08-06T12:09:56;5.30;;;4.03;;
4466;SDS011;2246;42.664;23.278;2023-08-06T12:12:22;4.07;;;3.47;;
4466;SDS011;2246;42.664;23.278;2023-08-06T12:14:48;3.80;;;3.40;;
4466;SDS011;2246;42.664;23.278;2023-08-06T12:17:14;4.45;;;3.60;;
4466;SDS011;2246;42.664;23.278;2023-08-06T12:19:40;4.55;;;3.85;;
4466;SDS011;2246;42.664;23.278;2023-08-06T12:22:06;7.05;;;4.03;;
4466;SDS011;2246;42.664;23.278;2023-08-06T12:24:33;5.05;;;3.58;;
4466;SDS011;2246;42.664;23.278;2023-08-06T12:26:59;5.30;;;3.63;;
4466;SDS011;2246;42.664;23.278;2023-08-06T12:29:27;5.68;;;3.90;;
4466;SDS011;2246;42.664;23.278;2023-08-06T12:31:53;4.95;;;3.92;;
4466;SDS011;2246;42.664;23.278;2023-08-06T12:34:19;5.82;;;3.78;;
4466;SDS011;2246;42.664;23.278;2023-08-06T12:36:45;6.25;;;4.20;;
4466;SDS011;2246;42.664;23.278;2023-08-06T12:39:11;6.32;;;3.88;;
4466;SDS011;2246;42.664;23.278;2023-08-06T12:41:38;8.07;;;3.90;;
4466;SDS011;2246;42.664;23.278;2023-08-06T12:44:04;5.57;;;3.90;;
4466;SDS011;2246;42.664;23.278;2023-08-06T12:46:30;6.55;;;3.85;;
4466;SDS011;2246;42.664;23.278;2023-08-06T12:48:56;7.72;;;4.20;;
4466;SDS011;2246;42.664;23.278;2023-08-06T12:51:23;5.15;;;3.70;;
4466;SDS011;2246;42.664;23.278;2023-08-06T12:53:49;5.32;;;3.72;;
4466;SDS011;2246;42.664;23.278;2023-08-06T12:56:15;5.65;;;3.80;;
4466;SDS011;2246;42.664;23.278;2023-08-06T12:58:41;5.78;;;3.70;;
4466;SDS011;2246;42.664;23.278;2023-08-06T13:01:07;6.17;;;3.57;;
4466;SDS011;2246;42.664;23.278;2023-08-06T13:03:33;6.03;;;4.25;;
4466;SDS011;2246;42.664;23.278;2023-08-06T13:05:59;5.68;;;3.67;;
4466;SDS011;2246;42.664;23.278;2023-08-06T13:08:25;11.88;;;5.00;;
4466;SDS011;2246;42.664;23.278;2023-08-06T13:10:51;6.95;;;4.47;;
4466;SDS011;2246;42.664;23.278;2023-08-06T13:13:17;4.95;;;3.75;;
4466;SDS011;2246;42.664;23.278;2023-08-06T13:15:43;5.43;;;3.92;;
4466;SDS011;2246;42.664;23.278;2023-08-06T13:18:09;6.93;;;3.67;;
4466;SDS011;2246;42.664;23.278;2023-08-06T13:20:37;4.45;;;3.85;;
4466;SDS011;2246;42.664;23.278;2023-08-06T13:23:05;7.45;;;3.80;;
4466;SDS011;2246;42.664;23.278;2023-08-06T13:25:31;4.15;;;3.70;;
4466;SDS011;2246;42.664;23.278;2023-08-06T13:28:01;5.20;;;3.70;;
4466;SDS011;2246;42.664;23.278;2023-08-06T13:30:28;6.55;;;3.65;;
4466;SDS011;2246;42.664;23.278;2023-08-06T13:32:54;6.45;;;4.50;;
4466;SDS011;2246;42.664;23.278;2023-08-06T13:35:21;6.63;;;4.13;;
4466;SDS011;2246;42.664;23.278;2023-08-06T13:37:47;6.22;;;4.13;;
4466;SDS011;2246;42.664;23.278;2023-08-06T13:40:13;7.80;;;3.83;;
4466;SDS011;2246;42.664;23.278;2023-08-06T13:42:40;7.22;;;3.58;;
4466;SDS011;2246;42.664;23.278;2023-08-06T13:45:06;5.95;;;3.95;;
4466;SDS011;2246;42.664;23.278;2023-08-06T13:47:32;6.17;;;3.77;;
4466;SDS011;2246;42.664;23.278;2023-08-06T13:49:58;7.35;;;3.80;;
4466;SDS011;2246;42.664;23.278;2023-08-06T13:52:25;4.82;;;3.80;;
4466;SDS011;2246;42.664;23.278;2023-08-06T13:54:51;8.82;;;3.47;;
4466;SDS011;2246;42.664;23.278;2023-08-06T13:57:18;6.78;;;3.15;;
4466;SDS011;2246;42.664;23.278;2023-08-06T13:59:44;7.03;;;3.88;;
4466;SDS011;2246;42.664;23.278;2023-08-06T14:02:10;6.80;;;3.72;;
4466;SDS011;2246;42.664;23.278;2023-08-06T14:04:36;5.07;;;3.63;;
4466;SDS011;2246;42.664;23.278;2023-08-06T14:07:03;5.32;;;3.22;;
4466;SDS011;2246;42.664;23.278;2023-08-06T14:09:29;3.75;;;3.17;;
4466;SDS011;2246;42.664;23.278;2023-08-06T14:11:55;7.43;;;3.35;;
4466;SDS011;2246;42.664;23.278;2023-08-06T14:14:21;4.35;;;3.30;;
4466;SDS011;2246;42.664;23.278;2023-08-06T14:16:51;5.53;;;3.53;;
4466;SDS011;2246;42.664;23.278;2023-08-06T14:19:17;4.57;;;2.97;;
4466;SDS011;2246;42.664;23.278;2023-08-06T14:21:43;4.32;;;3.35;;
4466;SDS011;2246;42.664;23.278;2023-08-06T14:24:09;3.78;;;3.00;;
4466;SDS011;2246;42.664;23.278;2023-08-06T14:26:35;4.82;;;3.13;;
4466;SDS011;2246;42.664;23.278;2023-08-06T14:29:02;5.82;;;3.08;;
4466;SDS011;2246;42.664;23.278;2023-08-06T14:31:28;4.72;;;3.03;;
4466;SDS011;2246;42.664;23.278;2023-08-06T14:33:54;4.47;;;2.85;;
4466;SDS011;2246;42.664;23.278;2023-08-06T14:36:20;6.18;;;2.80;;
4466;SDS011;2246;42.664;23.278;2023-08-06T14:38:47;4.85;;;2.60;;
4466;SDS011;2246;42.664;23.278;2023-08-06T14:41:13;6.82;;;2.90;;
4466;SDS011;2246;42.664;23.278;2023-08-06T14:43:39;5.50;;;2.90;;
4466;SDS011;2246;42.664;23.278;2023-08-06T14:46:05;3.90;;;2.05;;
4466;SDS011;2246;42.664;23.278;2023-08-06T14:48:31;2.50;;;1.90;;
4466;SDS011;2246;42.664;23.278;2023-08-06T14:50:57;3.47;;;1.90;;
4466;SDS011;2246;42.664;23.278;2023-08-06T14:53:23;3.30;;;1.75;;
4466;SDS011;2246;42.664;23.278;2023-08-06T14:55:49;4.70;;;1.90;;
4466;SDS011;2246;42.664;23.278;2023-08-06T14:58:15;4.43;;;1.85;;
4466;SDS011;2246;42.664;23.278;2023-08-06T15:00:41;5.90;;;1.90;;
4466;SDS011;2246;42.664;23.278;2023-08-06T15:03:07;4.35;;;1.88;;
4466;SDS011;2246;42.664;23.278;2023-08-06T15:05:33;4.15;;;1.70;;
4466;SDS011;2246;42.664;23.278;2023-08-06T15:07:59;2.00;;;1.67;;
4466;SDS011;2246;42.664;23.278;2023-08-06T15:10:25;2.63;;;2.00;;
4466;SDS011;2246;42.664;23.278;2023-08-06T15:12:52;4.22;;;1.98;;
4466;SDS011;2246;42.664;23.278;2023-08-06T15:15:18;4.43;;;2.00;;
4466;SDS011;2246;42.664;23.278;2023-08-06T15:17:44;3.83;;;2.40;;
4466;SDS011;2246;42.664;23.278;2023-08-06T15:20:10;6.22;;;3.00;;
4466;SDS011;2246;42.664;23.278;2023-08-06T15:22:36;5.45;;;2.70;;